Time;durP1;ratioP1;P1;durP2;ratioP2;P2;SDS_P1;SDS_P2;PMS_P1;PMS_P2;Temp;Humidity;BMP_temperature;BMP_pressure;BME280_temperature;BME280_humidity;BME280_pressure;Samples;Min_cycle;Max_cycle;Signal;HPM_P1;HPM_P2
2022/04/10 00:01:12;;;;;;;1.60;1.00;;;13.90;59.90;;;;;;5034688;28;20053;-70
2022/04/10 00:03:39;;;;;;;1.60;1.00;;;13.80;54.60;;;;;;5033814;28;20053;-70
2022/04/10 00:06:07;;;;;;;2.10;1.10;;;13.80;59.50;;;;;;5034771;28;20049;-71
2022/04/10 00:08:33;;;;;;;0.90;0.70;;;13.90;59.60;;;;;;5034892;28;20049;-71
2022/04/10 00:11:00;;;;;;;2.03;1.05;;;14.00;59.80;;;;;;5034596;28;20049;-71
2022/04/10 00:13:27;;;;;;;2.03;1.02;;;13.90;54.20;;;;;;5033463;28;20046;-71
2022/04/10 00:15:54;;;;;;;2.00;1.30;;;13.80;59.90;;;;;;5033501;28;20060;-71
2022/04/10 00:18:20;;;;;;;3.05;1.10;;;13.80;55.70;;;;;;5036776;28;20099;-71
2022/04/10 00:20:48;;;;;;;2.35;1.15;;;;;;;;;;5052926;28;20048;-71
2022/04/10 00:23:16;;;;;;;2.72;1.20;;;13.70;59.50;;;;;;5053535;28;20482;-70
2022/04/10 00:25:43;;;;;;;2.15;1.10;;;;;;;;;;5053574;28;20055;-70
2022/04/10 00:28:10;;;;;;;1.45;0.90;;;14.00;59.60;;;;;;5052935;28;20059;-71
2022/04/10 00:30:37;;;;;;;1.02;0.93;;;;;;;;;;5054028;28;20056;-71
2022/04/10 00:33:04;;;;;;;1.98;1.02;;;14.10;59.60;;;;;;5052884;28;20049;-71
2022/04/10 00:35:31;;;;;;;2.97;1.05;;;14.00;59.90;;;;;;5051474;28;20059;-71
2022/04/10 00:37:58;;;;;;;2.33;1.00;;;14.10;53.00;;;;;;5053129;28;20067;-71
2022/04/10 00:40:26;;;;;;;1.70;1.10;;;14.00;56.50;;;;;;5054213;28;20059;-71
2022/04/10 00:42:52;;;;;;;2.33;1.05;;;14.00;59.70;;;;;;5052859;28;20504;-71
2022/04/10 00:45:21;;;;;;;2.42;1.13;;;14.10;59.50;;;;;;5053923;28;20047;-71
2022/04/10 00:47:47;;;;;;;2.35;1.10;;;14.20;59.60;;;;;;5053156;28;20441;-71
2022/04/10 00:50:15;;;;;;;3.25;1.33;;;13.80;57.20;;;;;;5052531;28;20494;-71
2022/04/10 00:52:42;;;;;;;3.92;1.30;;;14.10;54.90;;;;;;5051014;28;20585;-71
2022/04/10 00:55:09;;;;;;;2.10;1.10;;;14.20;59.70;;;;;;5052870;28;20059;-71
2022/04/10 00:57:37;;;;;;;1.88;1.00;;;14.20;59.70;;;;;;5052612;28;20045;-71
2022/04/10 01:00:04;;;;;;;1.48;0.93;;;14.20;59.70;;;;;;5052523;28;20144;-71
2022/04/10 01:02:31;;;;;;;3.15;1.10;;;13.90;59.30;;;;;;5052288;28;20053;-71
2022/04/10 01:04:58;;;;;;;2.25;1.10;;;14.20;59.40;;;;;;5051921;28;20045;-71
2022/04/10 01:07:25;;;;;;;1.90;1.00;;;;;;;;;;5051589;28;20053;-71
2022/04/10 01:09:52;;;;;;;2.55;1.00;;;;;;;;;;5052392;28;20063;-71
2022/04/10 01:12:19;;;;;;;2.83;1.20;;;;;;;;;;5052495;28;20055;-71
2022/04/10 01:14:47;;;;;;;2.33;1.40;;;13.90;59.40;;;;;;5053372;28;20059;-71
2022/04/10 01:17:14;;;;;;;1.58;1.00;;;14.20;59.60;;;;;;5052263;28;20063;-71
2022/04/10 01:19:41;;;;;;;2.63;1.00;;;14.10;51.80;;;;;;5052054;28;20068;-70
2022/04/10 01:22:09;;;;;;;2.78;1.10;;;14.10;51.80;;;;;;5052418;28;20483;-71
2022/04/10 01:24:37;;;;;;;2.92;1.05;;;14.10;59.50;;;;;;5050532;28;20053;-71
2022/04/10 01:27:04;;;;;;;3.20;1.10;;;14.20;59.60;;;;;;5052549;28;20064;-71
2022/04/10 01:29:32;;;;;;;2.53;1.20;;;;;;;;;;5051782;28;20061;-71
2022/04/10 01:31:58;;;;;;;1.40;1.00;;;14.20;59.60;;;;;;5051769;28;20486;-71
2022/04/10 01:34:25;;;;;;;3.63;1.00;;;;;;;;;;5053053;28;20053;-71
2022/04/10 01:36:52;;;;;;;3.90;1.20;;;13.90;59.10;;;;;;5051802;28;20067;-71
2022/04/10 01:39:19;;;;;;;2.50;1.10;;;14.20;59.30;;;;;;5052049;28;20052;-71
2022/04/10 01:41:47;;;;;;;2.75;1.10;;;14.10;59.20;;;;;;5050070;28;20139;-71
2022/04/10 01:44:14;;;;;;;2.20;1.20;;;14.10;59.40;;;;;;5051675;28;20133;-71
2022/04/10 01:46:41;;;;;;;3.65;1.08;;;14.10;59.40;;;;;;5053230;28;20049;-71
2022/04/10 01:49:08;;;;;;;3.47;1.20;;;14.20;56.60;;;;;;5050132;28;20139;-71
2022/04/10 01:51:34;;;;;;;2.50;1.00;;;14.20;59.30;;;;;;5052326;28;20049;-71
2022/04/10 01:54:01;;;;;;;1.77;1.02;;;13.80;59.30;;;;;;5052531;28;20059;-71
2022/04/10 01:56:28;;;;;;;2.05;1.10;;;14.10;59.20;;;;;;5049937;28;20053;-70
2022/04/10 01:58:56;;;;;;;1.95;1.00;;;14.20;59.40;;;;;;5052579;28;20493;-71
2022/04/10 02:01:23;;;;;;;2.47;1.00;;;14.10;59.40;;;;;;5051237;28;20052;-71
2022/04/10 02:03:51;;;;;;;3.60;1.00;;;;;;;;;;5051370;28;20048;-70
2022/04/10 02:06:18;;;;;;;2.15;1.00;;;;;;;;;;5052495;28;20064;-70
2022/04/10 02:08:45;;;;;;;1.77;1.17;;;14.10;59.40;;;;;;5052381;28;20557;-71
2022/04/10 02:11:12;;;;;;;2.40;1.25;;;;;;;;;;5051136;28;20053;-71
2022/04/10 02:13:39;;;;;;;3.75;1.10;;;14.20;59.10;;;;;;5049439;28;20068;-71
2022/04/10 02:16:08;;;;;;;2.45;1.17;;;14.40;59.30;;;;;;5050856;28;20059;-71
2022/04/10 02:18:35;;;;;;;3.25;1.10;;;14.20;59.40;;;;;;5051203;28;20494;-71
2022/04/10 02:21:02;;;;;;;2.35;0.90;;;14.10;59.30;;;;;;5050785;28;20055;-71
2022/04/10 02:23:29;;;;;;;1.30;0.95;;;;;;;;;;5052226;28;20052;-71
2022/04/10 02:25:55;;;;;;;3.17;1.00;;;14.10;59.40;;;;;;5051023;28;20055;-71
2022/04/10 02:28:22;;;;;;;2.55;1.10;;;13.70;58.90;;;;;;5051072;28;20657;-71
2022/04/10 02:30:49;;;;;;;3.28;1.10;;;14.40;56.10;;;;;;5049286;28;20052;-71
2022/04/10 02:33:17;;;;;;;3.22;1.10;;;13.90;58.80;;;;;;5051039;28;20049;-71
2022/04/10 02:35:44;;;;;;;2.50;1.17;;;13.90;59.30;;;;;;5052043;28;20067;-71
2022/04/10 02:38:11;;;;;;;2.83;1.05;;;;;;;;;;5049909;28;20049;-70
2022/04/10 02:40:37;;;;;;;1.73;0.93;;;14.10;59.10;;;;;;5031754;28;20056;-71
2022/04/10 02:43:04;;;;;;;3.15;1.45;;;14.20;59.10;;;;;;5030932;28;20060;-71
2022/04/10 02:45:31;;;;;;;1.83;1.02;;;13.70;55.80;;;;;;5032098;28;20140;-71
2022/04/10 02:47:58;;;;;;;2.75;0.90;;;14.30;59.30;;;;;;5045502;28;20057;-71
2022/04/10 02:50:26;;;;;;;2.08;0.95;;;14.10;51.60;;;;;;5050469;28;20060;-70
2022/04/10 02:52:54;;;;;;;3.47;1.20;;;;;;;;;;5050692;28;20482;-70
2022/04/10 02:55:21;;;;;;;3.50;1.40;;;;;;;;;;5051731;28;20061;-71
2022/04/10 02:57:48;;;;;;;1.58;0.95;;;14.10;59.40;;;;;;5050621;28;20057;-71
2022/04/10 03:00:15;;;;;;;1.98;1.20;;;14.10;59.40;;;;;;5050648;28;20053;-71
2022/04/10 03:02:42;;;;;;;1.40;0.98;;;14.20;59.10;;;;;;5050543;28;20082;-71
2022/04/10 03:05:09;;;;;;;2.00;1.20;;;;;;;;;;5047355;28;20091;-71
2022/04/10 03:07:37;;;;;;;3.03;1.30;;;14.10;58.90;;;;;;5030685;28;20049;-71
2022/04/10 03:10:04;;;;;;;2.40;1.02;;;14.20;57.50;;;;;;5030436;28;20061;-71
2022/04/10 03:12:31;;;;;;;2.53;1.30;;;;;;;;;;5030246;28;20060;-71
2022/04/10 03:14:58;;;;;;;3.00;1.20;;;14.10;59.40;;;;;;5030166;28;20052;-71
2022/04/10 03:17:25;;;;;;;2.20;1.13;;;14.20;59.40;;;;;;5030684;28;20053;-71
2022/04/10 03:19:52;;;;;;;1.65;0.93;;;;;;;;;;5031556;28;20053;-70
2022/04/10 03:22:19;;;;;;;1.88;1.13;;;;;;;;;;5031712;28;20050;-71
2022/04/10 03:24:47;;;;;;;2.50;1.20;;;14.00;54.70;;;;;;5031808;28;20046;-70
2022/04/10 03:27:14;;;;;;;2.42;1.13;;;14.10;53.50;;;;;;5031263;28;20053;-71
2022/04/10 03:29:41;;;;;;;3.13;1.10;;;14.60;59.40;;;;;;5034048;28;20057;-71
2022/04/10 03:32:08;;;;;;;1.60;0.98;;;13.80;58.90;;;;;;5034327;28;20132;-71
2022/04/10 03:34:35;;;;;;;1.63;0.90;;;14.10;59.10;;;;;;5034314;28;20052;-71
2022/04/10 03:37:05;;;;;;;2.75;1.00;;;14.00;57.50;;;;;;5035415;28;20068;-71
2022/04/10 03:39:32;;;;;;;1.50;0.85;;;;;;;;;;5033886;28;20056;-71
2022/04/10 03:42:00;;;;;;;3.90;1.20;;;14.20;59.30;;;;;;5034125;28;20063;-71
2022/04/10 03:44:27;;;;;;;2.90;1.10;;;14.20;59.30;;;;;;5035205;28;20050;-70
2022/04/10 03:46:54;;;;;;;2.03;0.98;;;14.20;59.10;;;;;;5035219;28;20045;-71
2022/04/10 03:49:21;;;;;;;2.83;1.10;;;;;;;;;;5035488;28;20141;-70
2022/04/10 03:51:47;;;;;;;2.83;1.30;;;14.20;59.10;;;;;;5034178;28;20057;-71
2022/04/10 03:54:15;;;;;;;2.65;1.15;;;14.10;59.10;;;;;;5035930;28;20053;-71
2022/04/10 03:56:42;;;;;;;2.22;1.10;;;14.00;56.10;;;;;;5034073;28;20505;-71
2022/04/10 03:59:10;;;;;;;1.73;0.95;;;14.10;51.50;;;;;;5034075;28;20421;-71
2022/04/10 04:01:37;;;;;;;1.58;1.05;;;14.20;57.80;;;;;;5034803;28;20045;-71
2022/04/10 04:04:05;;;;;;;2.63;1.02;;;14.10;59.10;;;;;;5033672;28;20053;-71
2022/04/10 04:06:31;;;;;;;2.33;1.13;;;13.90;59.20;;;;;;5033736;28;20057;-71
2022/04/10 04:08:58;;;;;;;2.05;1.20;;;14.00;59.00;;;;;;5049441;28;20045;-71
2022/04/10 04:11:25;;;;;;;2.67;1.02;;;;;;;;;;5053520;28;20079;-70
2022/04/10 04:13:55;;;;;;;1.95;1.08;;;;;;;;;;5054552;28;20393;-71
2022/04/10 04:16:23;;;;;;;1.77;0.90;;;13.90;58.90;;;;;;5053030;28;20094;-71
2022/04/10 04:18:51;;;;;;;1.90;1.10;;;;;;;;;;5053359;28;20049;-71
2022/04/10 04:21:17;;;;;;;2.45;0.93;;;14.00;54.80;;;;;;5052302;28;20486;-71
2022/04/10 04:23:44;;;;;;;2.88;1.10;;;14.10;59.20;;;;;;5033455;28;20061;-71
2022/04/10 04:26:11;;;;;;;2.58;1.10;;;14.10;59.00;;;;;;5034305;28;20087;-71
2022/04/10 04:28:38;;;;;;;2.13;1.02;;;;;;;;;;5034512;28;20056;-71
2022/04/10 04:31:05;;;;;;;1.67;0.93;;;14.10;59.00;;;;;;5033025;28;20057;-71
2022/04/10 04:33:33;;;;;;;2.88;1.30;;;14.10;51.40;;;;;;5033288;28;20050;-70
2022/04/10 04:36:00;;;;;;;3.78;1.10;;;;;;;;;;5033075;28;20049;-70
2022/04/10 04:38:27;;;;;;;1.42;0.85;;;;;;;;;;5033322;28;20045;-71
2022/04/10 04:40:54;;;;;;;2.08;1.10;;;;;;;;;;5032420;28;20433;-71
2022/04/10 04:43:21;;;;;;;2.47;1.05;;;14.00;58.90;;;;;;5033294;28;20516;-71
2022/04/10 04:45:48;;;;;;;1.75;1.00;;;;;;;;;;5034260;28;20060;-71
2022/04/10 04:48:14;;;;;;;2.42;1.08;;;14.40;59.40;;;;;;5034087;28;20056;-71
2022/04/10 04:50:44;;;;;;;2.33;1.05;;;14.10;59.30;;;;;;5032879;28;20057;-71
2022/04/10 04:53:11;;;;;;;1.77;1.20;;;14.10;59.00;;;;;;5032694;28;20057;-70
2022/04/10 04:55:38;;;;;;;3.13;1.00;;;13.90;59.10;;;;;;5043339;28;20401;-71
2022/04/10 04:58:05;;;;;;;2.10;1.10;;;;;;;;;;5052567;28;20056;-70
2022/04/10 05:00:31;;;;;;;1.67;0.90;;;14.10;59.00;;;;;;5052468;28;20140;-71
2022/04/10 05:02:58;;;;;;;2.33;1.00;;;14.00;59.20;;;;;;5052692;28;20061;-71
2022/04/10 05:05:25;;;;;;;2.42;1.27;;;14.00;58.50;;;;;;5053568;28;20409;-71
2022/04/10 05:07:53;;;;;;;2.13;1.00;;;14.10;59.00;;;;;;5052576;28;20061;-72
2022/04/10 05:10:20;;;;;;;1.75;0.93;;;14.10;59.00;;;;;;5052315;28;20079;-71
2022/04/10 05:12:47;;;;;;;1.92;0.98;;;;;;;;;;5035142;28;20053;-71
2022/04/10 05:15:14;;;;;;;3.10;1.00;;;;;;;;;;5033488;28;20413;-71
2022/04/10 05:17:41;;;;;;;1.40;1.02;;;;;;;;;;5033536;28;20503;-71
2022/04/10 05:20:08;;;;;;;1.95;1.00;;;14.10;58.90;;;;;;5032302;28;20057;-71
2022/04/10 05:22:35;;;;;;;1.55;1.00;;;13.80;55.70;;;;;;5033301;28;20049;-71
2022/04/10 05:25:03;;;;;;;1.38;1.00;;;14.10;58.90;;;;;;5032171;28;20053;-71
2022/04/10 05:27:30;;;;;;;2.33;1.10;;;;;;;;;;5034413;28;20450;-71
2022/04/10 05:29:57;;;;;;;2.30;1.00;;;;;;;;;;5032049;28;20458;-71
2022/04/10 05:32:24;;;;;;;2.50;1.50;;;14.10;59.20;;;;;;5033200;28;20392;-71
2022/04/10 05:34:51;;;;;;;2.65;1.27;;;;;;;;;;5031892;28;20063;-71
2022/04/10 05:37:18;;;;;;;1.83;0.90;;;14.10;59.10;;;;;;5031618;28;20059;-71
2022/04/10 05:39:45;;;;;;;3.60;1.00;;;14.10;58.80;;;;;;5032070;28;20053;-71
2022/04/10 05:42:13;;;;;;;2.17;0.90;;;14.10;55.70;;;;;;5031775;28;20053;-71
2022/04/10 05:44:39;;;;;;;2.25;0.93;;;14.20;56.40;;;;;;5032990;28;20045;-71
2022/04/10 05:47:07;;;;;;;1.25;0.95;;;14.10;51.20;;;;;;5033042;28;20505;-71
2022/04/10 05:49:34;;;;;;;2.72;0.98;;;;;;;;;;5032524;28;20075;-68
2022/04/10 05:52:00;;;;;;;2.40;1.20;;;14.20;59.00;;;;;;5031528;28;20088;-71
2022/04/10 05:54:27;;;;;;;1.20;0.90;;;14.10;58.90;;;;;;5032385;28;20045;-71
2022/04/10 05:56:55;;;;;;;1.52;1.00;;;14.20;56.30;;;;;;5033055;28;20045;-71
2022/04/10 05:59:23;;;;;;;1.05;0.80;;;14.10;58.80;;;;;;5031377;28;20068;-71
2022/04/10 06:01:50;;;;;;;2.60;1.00;;;;;;;;;;5040304;28;20106;-71
2022/04/10 06:04:17;;;;;;;2.28;1.08;;;14.10;58.60;;;;;;5051507;28;20055;-71
2022/04/10 06:06:44;;;;;;;1.98;0.90;;;14.00;57.10;;;;;;5051394;28;20052;-71
2022/04/10 06:09:11;;;;;;;1.90;0.85;;;14.30;59.00;;;;;;5047732;28;20059;-71
2022/04/10 06:11:37;;;;;;;1.40;0.80;;;14.00;58.50;;;;;;5040633;28;20049;-71
2022/04/10 06:14:04;;;;;;;1.65;0.85;;;14.00;58.70;;;;;;5040338;28;20490;-69
2022/04/10 06:16:32;;;;;;;1.33;0.85;;;14.00;58.50;;;;;;5048863;28;20060;-70
2022/04/10 06:18:59;;;;;;;1.38;0.80;;;;;;;;;;5044456;28;20044;-70
2022/04/10 06:21:27;;;;;;;1.80;1.10;;;;;;;;;;5042373;28;20044;-70
2022/04/10 06:23:53;;;;;;;1.65;0.90;;;14.40;58.80;;;;;;5042816;28;20045;-70
2022/04/10 06:26:20;;;;;;;1.27;0.88;;;;;;;;;;5041313;28;20106;-70
2022/04/10 06:28:47;;;;;;;1.77;1.00;;;14.40;58.90;;;;;;5039665;28;20054;-70
2022/04/10 06:31:15;;;;;;;1.52;0.90;;;14.40;58.50;;;;;;5040918;28;20057;-71
2022/04/10 06:33:43;;;;;;;1.40;1.05;;;14.40;58.50;;;;;;5040619;28;20712;-71
2022/04/10 06:36:11;;;;;;;2.05;0.93;;;14.30;58.70;;;;;;5044486;28;20046;-70
2022/04/10 06:38:37;;;;;;;1.90;1.00;;;14.50;58.40;;;;;;5039179;28;20059;-70
2022/04/10 06:41:04;;;;;;;1.50;0.95;;;14.50;58.70;;;;;;5042090;28;20419;-71
2022/04/10 06:43:31;;;;;;;1.27;0.73;;;;;;;;;;5044983;28;20059;-70
2022/04/10 06:45:58;;;;;;;1.52;0.90;;;14.40;58.30;;;;;;5052129;28;20052;-71
2022/04/10 06:48:24;;;;;;;1.25;0.85;;;14.70;58.70;;;;;;5050978;28;20049;-70
2022/04/10 06:50:52;;;;;;;1.35;0.75;;;15.10;54.60;;;;;;5050125;28;22076;-70
2022/04/10 06:53:19;;;;;;;1.70;0.85;;;;;;;;;;5032062;28;20050;-70
2022/04/10 06:55:46;;;;;;;2.58;1.05;;;14.60;58.50;;;;;;5030427;28;20060;-70
2022/04/10 06:58:13;;;;;;;1.42;0.82;;;;;;;;;;5031935;28;20052;-70
2022/04/10 07:00:41;;;;;;;1.38;0.85;;;14.60;58.10;;;;;;5031753;28;20053;-70
2022/04/10 07:03:08;;;;;;;1.55;0.80;;;;;;;;;;5031190;28;20092;-70
2022/04/10 07:05:34;;;;;;;1.27;0.60;;;14.70;58.40;;;;;;5032004;28;20071;-70
2022/04/10 07:08:02;;;;;;;1.05;0.80;;;14.80;58.30;;;;;;5031741;28;20053;-70
2022/04/10 07:10:29;;;;;;;1.60;0.82;;;14.70;58.00;;;;;;5050399;28;20672;-70
2022/04/10 07:12:56;;;;;;;2.20;1.00;;;14.70;55.70;;;;;;5051780;28;20045;-70
2022/04/10 07:15:23;;;;;;;1.15;0.80;;;14.70;58.20;;;;;;5050140;28;20041;-70
2022/04/10 07:17:50;;;;;;;0.98;0.80;;;;;;;;;;5039563;28;20041;-70
2022/04/10 07:20:17;;;;;;;1.58;0.90;;;14.80;58.20;;;;;;5031590;28;20128;-71
2022/04/10 07:25:29;;;;;;;1.50;0.88;;;14.80;58.10;;;;;;5033054;28;20092;-71
2022/04/10 07:27:55;;;;;;;2.13;1.00;;;15.00;58.20;;;;;;5030758;28;20091;-72
2022/04/10 07:30:22;;;;;;;1.30;0.88;;;14.90;53.20;;;;;;5030755;28;20060;-71
2022/04/10 07:32:52;;;;;;;1.45;0.80;;;14.30;57.80;;;;;;5031373;28;20048;-71
2022/04/10 07:35:19;;;;;;;3.17;1.20;;;14.60;57.60;;;;;;5030486;28;20128;-71
2022/04/10 07:37:46;;;;;;;0.85;0.80;;;;;;;;;;5030358;28;20056;-71
2022/04/10 07:40:13;;;;;;;1.65;0.80;;;14.80;57.80;;;;;;5030145;28;20055;-71
2022/04/10 07:42:42;;;;;;;1.52;0.80;;;15.20;50.40;;;;;;5032395;28;20485;-71
2022/04/10 07:45:09;;;;;;;2.60;0.90;;;15.20;56.00;;;;;;5030472;28;20132;-71
2022/04/10 07:47:35;;;;;;;2.15;0.90;;;15.30;57.60;;;;;;5030720;28;20136;-71
2022/04/10 07:50:01;;;;;;;1.90;0.90;;;15.40;57.80;;;;;;5033116;28;21485;-72
2022/04/10 07:52:28;;;;;;;1.08;0.75;;;15.40;57.70;;;;;;5040172;28;20073;-71
2022/04/10 07:54:55;;;;;;;1.52;0.90;;;15.40;57.50;;;;;;5032839;28;20050;-71
2022/04/10 07:57:22;;;;;;;1.48;0.90;;;15.50;57.30;;;;;;5034054;28;20071;-71
2022/04/10 07:59:50;;;;;;;1.23;0.80;;;15.50;50.00;;;;;;5044131;28;20042;-70
2022/04/10 08:02:17;;;;;;;2.20;1.10;;;14.60;50.70;;;;;;5040938;28;20383;-71
2022/04/10 08:04:44;;;;;;;1.33;0.90;;;15.50;57.40;;;;;;5041100;28;20051;-71
2022/04/10 08:07:10;;;;;;;2.03;0.98;;;15.60;57.40;;;;;;5039516;28;20057;-71
2022/04/10 08:09:37;;;;;;;1.50;0.90;;;15.70;57.00;;;;;;5038818;28;20104;-71
2022/04/10 08:12:04;;;;;;;1.45;0.70;;;15.70;57.20;;;;;;5038358;28;20060;-72
2022/04/10 08:14:31;;;;;;;2.60;1.00;;;15.60;49.80;;;;;;5042697;28;20056;-71
2022/04/10 08:16:59;;;;;;;2.22;0.90;;;15.60;49.80;;;;;;5054372;28;20056;-71
2022/04/10 08:19:26;;;;;;;1.42;0.80;;;15.70;56.90;;;;;;5047378;28;20079;-71
2022/04/10 08:21:53;;;;;;;1.20;0.80;;;15.80;57.30;;;;;;5048760;28;20053;-71
2022/04/10 08:24:20;;;;;;;1.58;0.82;;;;;;;;;;5054407;28;20045;-71
2022/04/10 08:26:46;;;;;;;1.17;0.80;;;15.70;56.90;;;;;;5053668;28;20049;-72
2022/04/10 08:29:13;;;;;;;1.73;0.80;;;15.80;56.90;;;;;;5053449;28;20063;-71
2022/04/10 08:31:40;;;;;;;2.03;0.80;;;15.90;57.00;;;;;;5051591;28;20041;-71
2022/04/10 08:34:09;;;;;;;0.88;0.70;;;15.90;56.80;;;;;;5044641;28;20053;-72
2022/04/10 08:36:35;;;;;;;1.05;0.60;;;15.90;56.70;;;;;;5043214;28;20041;-71
2022/04/10 08:39:02;;;;;;;1.00;0.90;;;16.10;52.60;;;;;;5041937;28;20057;-71
2022/04/10 08:41:31;;;;;;;2.65;1.00;;;16.00;56.70;;;;;;5035593;28;20125;-72
2022/04/10 08:43:58;;;;;;;1.90;0.80;;;;;;;;;;5033764;28;20487;-71
2022/04/10 08:46:25;;;;;;;1.73;1.15;;;16.20;56.60;;;;;;5032869;28;20049;-72
2022/04/10 08:48:52;;;;;;;1.40;0.80;;;;;;;;;;5043817;28;20502;-69
2022/04/10 08:51:21;;;;;;;1.20;0.80;;;16.70;57.00;;;;;;5051516;28;20059;-71
2022/04/10 08:53:48;;;;;;;1.33;0.80;;;16.50;56.60;;;;;;5046335;28;20064;-71
2022/04/10 08:56:14;;;;;;;1.25;0.73;;;15.40;55.70;;;;;;5043151;28;20486;-71
2022/04/10 08:58:41;;;;;;;1.52;0.80;;;16.10;56.50;;;;;;5042715;28;20049;-71
2022/04/10 09:01:11;;;;;;;3.13;1.15;;;16.10;56.70;;;;;;5039637;28;20049;-72
2022/04/10 09:03:38;;;;;;;1.58;0.77;;;16.00;56.70;;;;;;5045598;28;20102;-71
2022/04/10 09:06:05;;;;;;;1.70;1.13;;;16.00;49.50;;;;;;5041449;28;20069;-71
2022/04/10 09:08:33;;;;;;;1.05;0.82;;;16.00;56.70;;;;;;5042293;28;20057;-70
2022/04/10 09:11:01;;;;;;;1.23;0.77;;;16.00;56.90;;;;;;5040245;28;20048;-70
2022/04/10 09:13:30;;;;;;;1.77;0.75;;;16.00;56.60;;;;;;5036041;28;20379;-70
2022/04/10 09:16:10;;;;;;;1.25;0.80;;;14.90;55.80;;;;;;5034178;28;20593;-71
2022/04/10 09:18:51;;;;;;;1.55;0.85;;;16.10;56.70;;;;;;5049716;28;20175;-70
2022/04/10 09:21:18;;;;;;;1.60;0.88;;;16.10;56.60;;;;;;5049456;28;20063;-70
2022/04/10 09:23:52;;;;;;;1.38;0.80;;;15.40;56.10;;;;;;5033212;28;20059;-70
2022/04/10 09:26:19;;;;;;;1.13;0.80;;;;;;;;;;5035877;28;20141;-70
2022/04/10 09:28:47;;;;;;;2.28;0.90;;;16.50;56.90;;;;;;5043641;28;20047;-70
2022/04/10 09:31:34;;;;;;;1.58;0.88;;;16.60;57.00;;;;;;5042121;28;20053;-70
2022/04/10 09:34:01;;;;;;;1.17;0.80;;;16.40;56.50;;;;;;5041185;28;20486;-70
2022/04/10 09:36:36;;;;;;;1.75;0.80;;;16.10;56.60;;;;;;5040305;28;20483;-70
2022/04/10 09:39:05;;;;;;;1.77;0.77;;;16.20;56.80;;;;;;5025732;28;20076;-70
2022/04/10 09:41:33;;;;;;;1.95;0.98;;;16.20;56.50;;;;;;5039536;28;20049;-70
2022/04/10 09:44:01;;;;;;;1.95;0.88;;;16.10;56.40;;;;;;5040018;28;20045;-70
2022/04/10 09:46:30;;;;;;;2.38;1.00;;;16.20;56.40;;;;;;5040175;28;20398;-70
2022/04/10 09:48:58;;;;;;;1.58;0.90;;;16.40;56.50;;;;;;5039764;28;20674;-70
2022/04/10 09:51:24;;;;;;;1.20;0.80;;;15.30;55.90;;;;;;5041815;28;20087;-70
2022/04/10 09:54:05;;;;;;;1.55;0.88;;;16.50;56.70;;;;;;5040950;28;20049;-70
2022/04/10 09:56:32;;;;;;;1.30;0.80;;;16.00;52.90;;;;;;5039048;28;20395;-70
2022/04/10 09:59:00;;;;;;;3.15;1.10;;;16.10;56.80;;;;;;5043093;28;20574;-70
2022/04/10 10:01:27;;;;;;;2.22;1.00;;;15.50;56.00;;;;;;5040244;28;20124;-70
2022/04/10 10:03:55;;;;;;;2.50;1.15;;;16.20;53.20;;;;;;5041693;28;20084;-70
2022/04/10 10:06:23;;;;;;;1.33;0.80;;;;;;;;;;5041382;28;20127;-71
2022/04/10 10:08:50;;;;;;;1.98;1.20;;;16.00;56.30;;;;;;5051568;28;20084;-70
2022/04/10 10:11:19;;;;;;;0.90;0.70;;;16.30;56.40;;;;;;5044248;28;20511;-71
2022/04/10 10:13:46;;;;;;;3.33;1.00;;;15.60;56.10;;;;;;5041149;28;20523;-70
2022/04/10 10:16:13;;;;;;;3.47;1.23;;;16.20;56.70;;;;;;5041176;28;20486;-70
2022/04/10 10:18:41;;;;;;;2.17;0.90;;;16.20;55.90;;;;;;5041301;28;20084;-70
2022/04/10 10:21:09;;;;;;;3.00;1.00;;;15.30;56.00;;;;;;5048585;28;20136;-68
2022/04/10 10:23:37;;;;;;;1.67;1.15;;;16.40;56.30;;;;;;5043506;28;20494;-70
2022/04/10 10:26:07;;;;;;;1.83;0.90;;;16.20;56.10;;;;;;5040401;28;20049;-70
2022/04/10 10:29:03;;;;;;;2.88;0.90;;;16.30;56.10;;;;;;5041988;28;20330;-70
2022/04/10 10:31:45;;;;;;;1.40;1.00;;;16.30;56.30;;;;;;5027131;28;20045;-70
2022/04/10 10:34:11;;;;;;;2.42;0.90;;;16.50;56.30;;;;;;5032117;28;20056;-69
2022/04/10 10:36:38;;;;;;;3.00;1.15;;;16.10;56.00;;;;;;5036882;28;20478;-70
2022/04/10 10:39:06;;;;;;;2.55;1.15;;;16.60;49.30;;;;;;5041764;28;20052;-70
2022/04/10 10:41:37;;;;;;;2.92;1.05;;;16.10;55.60;;;;;;5036222;28;20060;-70
2022/04/10 10:44:42;;;;;;;2.42;1.05;;;15.90;55.80;;;;;;5037862;28;20076;-70
2022/04/10 10:47:22;;;;;;;3.25;1.05;;;15.10;55.50;;;;;;5037178;28;20052;-70
2022/04/10 10:49:49;;;;;;;3.33;1.40;;;16.30;56.40;;;;;;5041224;28;20041;-70
2022/04/10 10:52:16;;;;;;;2.92;1.10;;;15.80;52.50;;;;;;5041446;28;20067;-69
2022/04/10 10:54:45;;;;;;;3.00;1.02;;;15.80;55.80;;;;;;5042041;28;20045;-70
2022/04/10 10:57:40;;;;;;;2.58;1.23;;;16.20;49.00;;;;;;5037260;28;20045;-70
2022/04/10 11:00:13;;;;;;;2.47;1.13;;;16.10;56.10;;;;;;4997020;28;20053;-70
2022/04/10 11:02:41;;;;;;;3.33;1.05;;;16.10;48.90;;;;;;5034125;28;20045;-70
2022/04/10 11:05:08;;;;;;;2.22;1.05;;;15.80;49.30;;;;;;5044792;28;20059;-70
2022/04/10 11:07:39;;;;;;;2.65;1.63;;;16.20;56.00;;;;;;5038765;28;20053;-70
2022/04/10 11:10:07;;;;;;;2.50;1.10;;;16.30;53.60;;;;;;5030512;28;20061;-70
2022/04/10 11:12:35;;;;;;;2.88;1.20;;;16.10;52.50;;;;;;5030943;28;20069;-70
2022/04/10 11:15:17;;;;;;;2.22;1.10;;;16.10;48.90;;;;;;5036974;28;20041;-70
2022/04/10 11:17:45;;;;;;;2.78;1.05;;;16.00;56.00;;;;;;5042119;28;20049;-70
2022/04/10 11:20:12;;;;;;;1.95;1.05;;;16.40;56.00;;;;;;5049428;28;20064;-70
2022/04/10 11:22:41;;;;;;;2.30;1.15;;;16.10;55.60;;;;;;5031653;28;20489;-70
2022/04/10 11:25:09;;;;;;;2.58;1.20;;;15.90;55.70;;;;;;5040620;28;20056;-70
2022/04/10 11:27:57;;;;;;;4.35;1.38;;;16.10;55.60;;;;;;5032512;28;20060;-70
2022/04/10 11:30:25;;;;;;;4.50;2.00;;;16.20;56.10;;;;;;5026715;28;20053;-70
2022/04/10 11:32:54;;;;;;;3.40;1.38;;;15.70;55.90;;;;;;5030534;28;20498;-70
2022/04/10 11:35:25;;;;;;;3.13;1.30;;;15.40;55.40;;;;;;5030398;28;20052;-70
2022/04/10 11:37:52;;;;;;;2.78;1.05;;;15.80;55.90;;;;;;5031704;28;20046;-70
2022/04/10 11:40:24;;;;;;;1.90;1.13;;;16.20;55.70;;;;;;5030303;28;20471;-70
2022/04/10 11:42:51;;;;;;;2.42;1.30;;;;;;;;;;5030683;28;20136;-70
2022/04/10 11:45:19;;;;;;;1.60;1.00;;;15.90;55.90;;;;;;5040259;28;20053;-70
2022/04/10 11:47:45;;;;;;;3.17;1.20;;;15.20;55.40;;;;;;5050121;28;20075;-70
2022/04/10 11:50:14;;;;;;;2.63;1.25;;;16.10;56.00;;;;;;5054118;28;20531;-70
2022/04/10 11:52:42;;;;;;;2.40;1.08;;;15.50;55.70;;;;;;5054317;28;20132;-70
2022/04/10 11:55:09;;;;;;;2.75;1.30;;;16.00;56.00;;;;;;5046974;28;20490;-70
2022/04/10 11:57:40;;;;;;;5.03;1.33;;;16.00;56.20;;;;;;5035820;28;20566;-70
2022/04/10 12:00:09;;;;;;;3.30;1.33;;;16.30;56.20;;;;;;5041875;28;20061;-70
2022/04/10 12:02:37;;;;;;;4.15;1.20;;;16.40;56.10;;;;;;5033940;28;20057;-69
2022/04/10 12:05:04;;;;;;;3.58;1.08;;;15.50;51.90;;;;;;5033962;28;20521;-68
2022/04/10 12:07:32;;;;;;;1.55;1.10;;;16.30;55.90;;;;;;5033780;28;20481;-70
2022/04/10 12:09:59;;;;;;;2.55;1.17;;;16.20;56.00;;;;;;5033385;28;20063;-68
2022/04/10 12:12:35;;;;;;;3.30;1.38;;;16.10;56.10;;;;;;5033642;28;20045;-69
2022/04/10 12:15:02;;;;;;;2.58;1.52;;;15.60;55.90;;;;;;5053514;28;20144;-69
2022/04/10 12:17:30;;;;;;;2.58;1.10;;;;;;;;;;5053203;28;20052;-70
2022/04/10 12:19:58;;;;;;;2.70;1.13;;;;;;;;;;5051782;28;20094;-71
2022/04/10 12:22:24;;;;;;;2.45;1.00;;;16.10;56.10;;;;;;5051112;28;20631;-71
2022/04/10 12:24:58;;;;;;;2.58;1.23;;;16.20;49.20;;;;;;5034871;28;20053;-71
2022/04/10 12:27:25;;;;;;;1.55;1.00;;;16.60;56.50;;;;;;5044272;28;20052;-71
2022/04/10 12:29:51;;;;;;;3.42;1.30;;;16.40;56.30;;;;;;5032828;28;20453;-70
2022/04/10 12:32:18;;;;;;;1.70;1.10;;;16.30;55.80;;;;;;5033260;28;20057;-71
2022/04/10 12:34:47;;;;;;;2.67;1.20;;;15.60;55.90;;;;;;5032951;28;20061;-71
2022/04/10 12:37:14;;;;;;;1.90;0.98;;;16.30;49.10;;;;;;5033350;28;20483;-71
2022/04/10 12:39:41;;;;;;;1.48;1.00;;;16.30;55.70;;;;;;5034134;28;20045;-70
2022/04/10 12:42:10;;;;;;;2.88;1.10;;;15.20;55.20;;;;;;5046936;28;20053;-70
2022/04/10 12:44:37;;;;;;;2.22;1.20;;;16.30;56.10;;;;;;5052765;28;20067;-70
2022/04/10 12:47:04;;;;;;;2.05;1.25;;;16.30;56.20;;;;;;5053052;28;20502;-70
2022/04/10 12:49:31;;;;;;;1.80;1.20;;;16.20;56.10;;;;;;5053192;28;20055;-70
2022/04/10 12:51:59;;;;;;;1.80;1.25;;;16.20;55.80;;;;;;5053033;28;20049;-70
2022/04/10 12:54:36;;;;;;;2.28;1.00;;;16.30;49.20;;;;;;5052585;28;20556;-71
2022/04/10 12:57:04;;;;;;;3.00;1.13;;;16.50;56.20;;;;;;5032886;28;20070;-70
2022/04/10 12:59:42;;;;;;;2.25;1.00;;;16.30;49.10;;;;;;5032258;28;20409;-71
2022/04/10 13:02:11;;;;;;;1.40;1.00;;;15.80;55.60;;;;;;5032959;28;20064;-70
2022/04/10 13:04:38;;;;;;;2.05;1.20;;;16.40;56.20;;;;;;5033791;28;20046;-70
2022/04/10 13:07:04;;;;;;;0.95;0.85;;;16.10;55.90;;;;;;5033802;28;20611;-70
2022/04/10 13:09:31;;;;;;;2.05;1.10;;;16.50;55.00;;;;;;5039782;28;20057;-69
2022/04/10 13:11:58;;;;;;;1.45;1.20;;;16.20;55.80;;;;;;5053638;28;20489;-69